sensor_id;sensor_type;location;lat;lon;timestamp;temperature;humidity
16966;DHT22;8599;47.852;12.070;2022-07-12T00:00:21;19.10;99.90
16966;DHT22;8599;47.852;12.070;2022-07-12T00:02:48;19.10;99.90
16966;DHT22;8599;47.852;12.070;2022-07-12T00:05:15;19.00;99.90
16966;DHT22;8599;47.852;12.070;2022-07-12T00:07:43;19.10;99.90
16966;DHT22;8599;47.852;12.070;2022-07-12T00:10:10;19.00;99.90
16966;DHT22;8599;47.852;12.070;2022-07-12T00:12:37;19.00;99.90
16966;DHT22;8599;47.852;12.070;2022-07-12T00:15:06;19.00;99.90
16966;DHT22;8599;47.852;12.070;2022-07-12T00:17:33;19.00;99.90
16966;DHT22;8599;47.852;12.070;2022-07-12T00:20:00;19.00;99.90
16966;DHT22;8599;47.852;12.070;2022-07-12T00:22:27;19.00;99.90
16966;DHT22;8599;47.852;12.070;2022-07-12T00:24:56;18.90;99.90
16966;DHT22;8599;47.852;12.070;2022-07-12T00:27:22;18.90;99.90
16966;DHT22;8599;47.852;12.070;2022-07-12T00:29:49;18.80;99.90
16966;DHT22;8599;47.852;12.070;2022-07-12T00:32:16;18.80;99.90
16966;DHT22;8599;47.852;12.070;2022-07-12T00:34:43;18.70;99.90
16966;DHT22;8599;47.852;12.070;2022-07-12T00:37:10;18.60;99.90
16966;DHT22;8599;47.852;12.070;2022-07-12T00:39:37;18.60;99.90
16966;DHT22;8599;47.852;12.070;2022-07-12T00:42:06;18.50;99.90
16966;DHT22;8599;47.852;12.070;2022-07-12T00:44:33;18.60;99.90
16966;DHT22;8599;47.852;12.070;2022-07-12T00:47:00;18.60;99.90
16966;DHT22;8599;47.852;12.070;2022-07-12T00:49:28;18.50;99.90
16966;DHT22;8599;47.852;12.070;2022-07-12T00:51:56;18.50;99.90
16966;DHT22;8599;47.852;12.070;2022-07-12T00:54:23;18.40;99.90
16966;DHT22;8599;47.852;12.070;2022-07-12T00:56:49;18.40;99.90
16966;DHT22;8599;47.852;12.070;2022-07-12T00:59:18;18.40;99.90
16966;DHT22;8599;47.852;12.070;2022-07-12T01:01:45;18.40;99.90
16966;DHT22;8599;47.852;12.070;2022-07-12T01:04:12;18.40;99.90
16966;DHT22;8599;47.852;12.070;2022-07-12T01:06:43;18.40;99.90
16966;DHT22;8599;47.852;12.070;2022-07-12T01:09:09;18.50;99.90
16966;DHT22;8599;47.852;12.070;2022-07-12T01:11:37;18.50;99.90
16966;DHT22;8599;47.852;12.070;2022-07-12T01:14:04;18.50;99.90
16966;DHT22;8599;47.852;12.070;2022-07-12T01:16:32;18.40;99.90
16966;DHT22;8599;47.852;12.070;2022-07-12T01:19:00;18.20;99.90
16966;DHT22;8599;47.852;12.070;2022-07-12T01:21:31;18.10;99.90
16966;DHT22;8599;47.852;12.070;2022-07-12T01:24:02;18.20;99.90
16966;DHT22;8599;47.852;12.070;2022-07-12T01:26:29;18.20;99.90
16966;DHT22;8599;47.852;12.070;2022-07-12T01:28:57;18.20;99.90
16966;DHT22;8599;47.852;12.070;2022-07-12T01:31:24;18.00;99.90
16966;DHT22;8599;47.852;12.070;2022-07-12T01:33:51;17.80;99.90
16966;DHT22;8599;47.852;12.070;2022-07-12T01:36:18;17.90;99.90
16966;DHT22;8599;47.852;12.070;2022-07-12T01:38:45;17.80;99.90
16966;DHT22;8599;47.852;12.070;2022-07-12T01:41:13;17.90;99.90
16966;DHT22;8599;47.852;12.070;2022-07-12T01:43:40;18.00;99.90
16966;DHT22;8599;47.852;12.070;2022-07-12T01:46:07;17.90;99.90
16966;DHT22;8599;47.852;12.070;2022-07-12T01:48:34;17.90;99.90
16966;DHT22;8599;47.852;12.070;2022-07-12T01:51:00;18.00;99.90
16966;DHT22;8599;47.852;12.070;2022-07-12T01:53:27;18.10;99.90
16966;DHT22;8599;47.852;12.070;2022-07-12T01:55:54;18.10;99.90
16966;DHT22;8599;47.852;12.070;2022-07-12T01:58:22;18.10;99.90
16966;DHT22;8599;47.852;12.070;2022-07-12T02:00:50;18.10;99.90
16966;DHT22;8599;47.852;12.070;2022-07-12T02:03:17;18.00;99.90
16966;DHT22;8599;47.852;12.070;2022-07-12T02:05:44;17.80;99.90
16966;DHT22;8599;47.852;12.070;2022-07-12T02:08:11;17.70;99.90
16966;DHT22;8599;47.852;12.070;2022-07-12T02:10:38;17.70;99.90
16966;DHT22;8599;47.852;12.070;2022-07-12T02:13:06;17.50;99.90
16966;DHT22;8599;47.852;12.070;2022-07-12T02:15:34;17.50;99.90
16966;DHT22;8599;47.852;12.070;2022-07-12T02:18:01;17.60;99.90
16966;DHT22;8599;47.852;12.070;2022-07-12T02:20:28;17.60;99.90
16966;DHT22;8599;47.852;12.070;2022-07-12T02:22:55;17.80;99.90
16966;DHT22;8599;47.852;12.070;2022-07-12T02:25:22;17.80;99.90
16966;DHT22;8599;47.852;12.070;2022-07-12T02:27:49;17.90;99.90
16966;DHT22;8599;47.852;12.070;2022-07-12T02:30:16;18.00;99.90
16966;DHT22;8599;47.852;12.070;2022-07-12T02:32:44;18.00;99.90
16966;DHT22;8599;47.852;12.070;2022-07-12T02:35:11;18.00;99.90
16966;DHT22;8599;47.852;12.070;2022-07-12T02:37:38;18.00;99.90
16966;DHT22;8599;47.852;12.070;2022-07-12T02:40:06;18.10;99.90
16966;DHT22;8599;47.852;12.070;2022-07-12T02:42:50;17.90;99.90
16966;DHT22;8599;47.852;12.070;2022-07-12T02:45:17;17.80;99.90
16966;DHT22;8599;47.852;12.070;2022-07-12T02:47:46;17.80;99.90
16966;DHT22;8599;47.852;12.070;2022-07-12T02:50:12;17.80;99.90
16966;DHT22;8599;47.852;12.070;2022-07-12T02:52:40;17.80;99.90
16966;DHT22;8599;47.852;12.070;2022-07-12T02:55:07;17.80;99.90
16966;DHT22;8599;47.852;12.070;2022-07-12T02:57:34;17.80;99.90
16966;DHT22;8599;47.852;12.070;2022-07-12T03:00:01;17.80;99.90
16966;DHT22;8599;47.852;12.070;2022-07-12T03:02:28;17.90;99.90
16966;DHT22;8599;47.852;12.070;2022-07-12T03:04:57;17.90;99.90
16966;DHT22;8599;47.852;12.070;2022-07-12T03:07:24;17.90;99.90
16966;DHT22;8599;47.852;12.070;2022-07-12T03:09:51;17.80;99.90
16966;DHT22;8599;47.852;12.070;2022-07-12T03:12:18;17.80;99.90
16966;DHT22;8599;47.852;12.070;2022-07-12T03:14:45;17.80;99.90
16966;DHT22;8599;47.852;12.070;2022-07-12T03:17:11;17.80;99.90
16966;DHT22;8599;47.852;12.070;2022-07-12T03:19:38;17.80;99.90
16966;DHT22;8599;47.852;12.070;2022-07-12T03:22:07;17.80;99.90
16966;DHT22;8599;47.852;12.070;2022-07-12T03:24:33;17.70;99.90
16966;DHT22;8599;47.852;12.070;2022-07-12T03:27:00;17.50;99.90
16966;DHT22;8599;47.852;12.070;2022-07-12T03:29:27;17.50;99.90
16966;DHT22;8599;47.852;12.070;2022-07-12T03:31:54;17.60;99.90
16966;DHT22;8599;47.852;12.070;2022-07-12T03:34:21;17.50;99.90
16966;DHT22;8599;47.852;12.070;2022-07-12T03:36:48;17.60;99.90
16966;DHT22;8599;47.852;12.070;2022-07-12T03:39:16;17.60;99.90
16966;DHT22;8599;47.852;12.070;2022-07-12T03:41:43;17.60;99.90
16966;DHT22;8599;47.852;12.070;2022-07-12T03:44:09;17.60;99.90
16966;DHT22;8599;47.852;12.070;2022-07-12T03:46:36;17.60;99.90
16966;DHT22;8599;47.852;12.070;2022-07-12T03:49:03;17.60;99.90
16966;DHT22;8599;47.852;12.070;2022-07-12T03:51:30;17.60;99.90
16966;DHT22;8599;47.852;12.070;2022-07-12T03:53:57;17.70;99.90
16966;DHT22;8599;47.852;12.070;2022-07-12T03:56:25;17.70;99.90
16966;DHT22;8599;47.852;12.070;2022-07-12T03:59:09;17.60;99.90
16966;DHT22;8599;47.852;12.070;2022-07-12T04:01:36;17.60;99.90
16966;DHT22;8599;47.852;12.070;2022-07-12T04:04:03;17.70;99.90
16966;DHT22;8599;47.852;12.070;2022-07-12T04:06:30;17.70;99.90
16966;DHT22;8599;47.852;12.070;2022-07-12T04:08:57;17.70;99.90
16966;DHT22;8599;47.852;12.070;2022-07-12T04:11:25;17.70;99.90
16966;DHT22;8599;47.852;12.070;2022-07-12T04:13:52;17.70;99.90
16966;DHT22;8599;47.852;12.070;2022-07-12T04:16:19;17.70;99.90
16966;DHT22;8599;47.852;12.070;2022-07-12T04:18:46;17.70;99.90
16966;DHT22;8599;47.852;12.070;2022-07-12T04:21:13;17.60;99.90
16966;DHT22;8599;47.852;12.070;2022-07-12T04:23:40;17.60;99.90
16966;DHT22;8599;47.852;12.070;2022-07-12T04:26:07;17.50;99.90
16966;DHT22;8599;47.852;12.070;2022-07-12T04:28:36;17.60;99.90
16966;DHT22;8599;47.852;12.070;2022-07-12T04:31:03;17.60;99.90
16966;DHT22;8599;47.852;12.070;2022-07-12T04:33:30;17.70;99.90
16966;DHT22;8599;47.852;12.070;2022-07-12T04:35:57;17.70;99.90
16966;DHT22;8599;47.852;12.070;2022-07-12T04:38:23;17.70;99.90
16966;DHT22;8599;47.852;12.070;2022-07-12T04:40:50;17.70;99.90
16966;DHT22;8599;47.852;12.070;2022-07-12T04:43:19;17.70;99.90
16966;DHT22;8599;47.852;12.070;2022-07-12T04:45:47;17.70;99.90
16966;DHT22;8599;47.852;12.070;2022-07-12T04:48:14;17.80;99.90
16966;DHT22;8599;47.852;12.070;2022-07-12T04:50:42;17.90;99.90
16966;DHT22;8599;47.852;12.070;2022-07-12T04:53:09;18.00;99.90
16966;DHT22;8599;47.852;12.070;2022-07-12T04:55:36;18.10;99.90
16966;DHT22;8599;47.852;12.070;2022-07-12T04:58:03;18.30;99.90
16966;DHT22;8599;47.852;12.070;2022-07-12T05:00:30;18.30;99.90
16966;DHT22;8599;47.852;12.070;2022-07-12T05:02:58;18.40;99.90
16966;DHT22;8599;47.852;12.070;2022-07-12T05:05:25;18.50;99.90
16966;DHT22;8599;47.852;12.070;2022-07-12T05:07:52;18.60;99.90
16966;DHT22;8599;47.852;12.070;2022-07-12T05:10:19;18.60;99.90
16966;DHT22;8599;47.852;12.070;2022-07-12T05:12:46;18.60;99.90
16966;DHT22;8599;47.852;12.070;2022-07-12T05:15:12;18.60;99.90
16966;DHT22;8599;47.852;12.070;2022-07-12T05:17:39;18.60;99.90
16966;DHT22;8599;47.852;12.070;2022-07-12T05:20:09;18.40;99.90
16966;DHT22;8599;47.852;12.070;2022-07-12T05:22:36;18.40;99.90
16966;DHT22;8599;47.852;12.070;2022-07-12T05:25:03;18.40;99.90
16966;DHT22;8599;47.852;12.070;2022-07-12T05:27:31;18.50;99.90
16966;DHT22;8599;47.852;12.070;2022-07-12T05:29:57;18.50;99.90
16966;DHT22;8599;47.852;12.070;2022-07-12T05:32:24;18.70;99.90
16966;DHT22;8599;47.852;12.070;2022-07-12T05:34:51;18.80;99.90
16966;DHT22;8599;47.852;12.070;2022-07-12T05:37:20;18.90;99.90
16966;DHT22;8599;47.852;12.070;2022-07-12T05:39:49;18.90;99.90
16966;DHT22;8599;47.852;12.070;2022-07-12T05:42:17;18.90;99.90
16966;DHT22;8599;47.852;12.070;2022-07-12T05:44:44;19.00;99.90
16966;DHT22;8599;47.852;12.070;2022-07-12T05:47:11;19.20;99.90
16966;DHT22;8599;47.852;12.070;2022-07-12T05:49:38;19.30;99.90
16966;DHT22;8599;47.852;12.070;2022-07-12T05:52:05;19.30;99.90
16966;DHT22;8599;47.852;12.070;2022-07-12T05:54:51;19.30;99.90
16966;DHT22;8599;47.852;12.070;2022-07-12T05:57:17;19.40;99.90
16966;DHT22;8599;47.852;12.070;2022-07-12T05:59:45;19.70;99.90
16966;DHT22;8599;47.852;12.070;2022-07-12T06:02:12;19.70;99.90
16966;DHT22;8599;47.852;12.070;2022-07-12T06:04:39;19.70;99.90
16966;DHT22;8599;47.852;12.070;2022-07-12T06:07:06;19.70;99.90
16966;DHT22;8599;47.852;12.070;2022-07-12T06:09:32;19.90;99.90
16966;DHT22;8599;47.852;12.070;2022-07-12T06:12:01;19.90;99.90
16966;DHT22;8599;47.852;12.070;2022-07-12T06:14:28;19.90;99.90
16966;DHT22;8599;47.852;12.070;2022-07-12T06:16:54;19.80;99.90
16966;DHT22;8599;47.852;12.070;2022-07-12T06:19:21;20.00;99.90
16966;DHT22;8599;47.852;12.070;2022-07-12T06:21:49;20.00;99.90
16966;DHT22;8599;47.852;12.070;2022-07-12T06:24:15;19.90;99.90
16966;DHT22;8599;47.852;12.070;2022-07-12T06:26:42;20.00;99.90
16966;DHT22;8599;47.852;12.070;2022-07-12T06:29:11;20.10;99.90
16966;DHT22;8599;47.852;12.070;2022-07-12T06:31:37;20.20;99.90
16966;DHT22;8599;47.852;12.070;2022-07-12T06:34:04;20.20;99.90
16966;DHT22;8599;47.852;12.070;2022-07-12T06:36:31;20.20;99.90
16966;DHT22;8599;47.852;12.070;2022-07-12T06:38:58;20.20;99.90
16966;DHT22;8599;47.852;12.070;2022-07-12T06:41:25;20.10;99.90
16966;DHT22;8599;47.852;12.070;2022-07-12T06:43:54;20.10;99.90
16966;DHT22;8599;47.852;12.070;2022-07-12T06:46:22;20.20;99.90
16966;DHT22;8599;47.852;12.070;2022-07-12T06:48:49;20.50;99.90
16966;DHT22;8599;47.852;12.070;2022-07-12T06:51:16;20.50;99.90
16966;DHT22;8599;47.852;12.070;2022-07-12T06:53:43;20.40;99.90
16966;DHT22;8599;47.852;12.070;2022-07-12T06:56:10;20.20;99.90
16966;DHT22;8599;47.852;12.070;2022-07-12T06:58:37;20.20;99.90
16966;DHT22;8599;47.852;12.070;2022-07-12T07:01:03;20.20;99.90
16966;DHT22;8599;47.852;12.070;2022-07-12T07:03:32;20.30;99.90
16966;DHT22;8599;47.852;12.070;2022-07-12T07:05:58;20.40;99.90
16966;DHT22;8599;47.852;12.070;2022-07-12T07:08:26;20.40;99.90
16966;DHT22;8599;47.852;12.070;2022-07-12T07:10:53;20.40;99.90
16966;DHT22;8599;47.852;12.070;2022-07-12T07:13:20;20.40;99.90
16966;DHT22;8599;47.852;12.070;2022-07-12T07:15:46;20.30;99.90
16966;DHT22;8599;47.852;12.070;2022-07-12T07:18:13;20.40;99.90
16966;DHT22;8599;47.852;12.070;2022-07-12T07:20:41;20.30;99.90
16966;DHT22;8599;47.852;12.070;2022-07-12T07:23:08;20.40;99.90
16966;DHT22;8599;47.852;12.070;2022-07-12T07:25:39;20.50;99.90
16966;DHT22;8599;47.852;12.070;2022-07-12T07:28:06;20.50;99.90
16966;DHT22;8599;47.852;12.070;2022-07-12T07:30:33;20.40;99.90
16966;DHT22;8599;47.852;12.070;2022-07-12T07:33:17;20.40;99.90
16966;DHT22;8599;47.852;12.070;2022-07-12T07:35:46;20.50;99.90
16966;DHT22;8599;47.852;12.070;2022-07-12T07:38:13;20.50;99.90
16966;DHT22;8599;47.852;12.070;2022-07-12T07:40:40;20.40;99.90
16966;DHT22;8599;47.852;12.070;2022-07-12T07:43:07;20.40;99.90
16966;DHT22;8599;47.852;12.070;2022-07-12T07:45:33;20.50;99.90
16966;DHT22;8599;47.852;12.070;2022-07-12T07:48:00;20.40;99.90
16966;DHT22;8599;47.852;12.070;2022-07-12T07:50:27;20.40;99.90
16966;DHT22;8599;47.852;12.070;2022-07-12T07:52:56;20.50;99.90
16966;DHT22;8599;47.852;12.070;2022-07-12T07:55:23;20.50;99.90
16966;DHT22;8599;47.852;12.070;2022-07-12T07:57:50;20.60;99.90
16966;DHT22;8599;47.852;12.070;2022-07-12T08:00:17;20.70;99.90
16966;DHT22;8599;47.852;12.070;2022-07-12T08:02:44;20.70;99.90
16966;DHT22;8599;47.852;12.070;2022-07-12T08:05:11;20.60;99.90
16966;DHT22;8599;47.852;12.070;2022-07-12T08:07:38;20.70;99.90
16966;DHT22;8599;47.852;12.070;2022-07-12T08:10:07;20.60;99.90
16966;DHT22;8599;47.852;12.070;2022-07-12T08:12:34;20.70;99.90
16966;DHT22;8599;47.852;12.070;2022-07-12T08:15:01;20.70;99.90
16966;DHT22;8599;47.852;12.070;2022-07-12T08:17:28;20.80;99.90
16966;DHT22;8599;47.852;12.070;2022-07-12T08:19:55;20.90;99.90
16966;DHT22;8599;47.852;12.070;2022-07-12T08:22:22;21.10;99.90
16966;DHT22;8599;47.852;12.070;2022-07-12T08:24:49;21.20;99.90
16966;DHT22;8599;47.852;12.070;2022-07-12T08:27:17;21.30;99.90
16966;DHT22;8599;47.852;12.070;2022-07-12T08:29:44;21.40;99.90
16966;DHT22;8599;47.852;12.070;2022-07-12T08:32:10;21.40;99.90
16966;DHT22;8599;47.852;12.070;2022-07-12T08:34:37;21.50;99.90
16966;DHT22;8599;47.852;12.070;2022-07-12T08:37:04;21.30;99.90
16966;DHT22;8599;47.852;12.070;2022-07-12T08:39:31;21.30;99.90
16966;DHT22;8599;47.852;12.070;2022-07-12T08:41:58;21.30;99.90
16966;DHT22;8599;47.852;12.070;2022-07-12T08:44:26;21.30;99.90
16966;DHT22;8599;47.852;12.070;2022-07-12T08:46:53;21.30;99.90
16966;DHT22;8599;47.852;12.070;2022-07-12T08:49:20;21.10;99.90
16966;DHT22;8599;47.852;12.070;2022-07-12T08:51:47;21.10;99.90
16966;DHT22;8599;47.852;12.070;2022-07-12T08:54:15;21.10;99.90
16966;DHT22;8599;47.852;12.070;2022-07-12T08:56:44;21.20;99.90
16966;DHT22;8599;47.852;12.070;2022-07-12T08:59:12;21.30;99.90
16966;DHT22;8599;47.852;12.070;2022-07-12T09:01:44;21.30;99.90
16966;DHT22;8599;47.852;12.070;2022-07-12T09:04:14;21.30;99.90
16966;DHT22;8599;47.852;12.070;2022-07-12T09:06:42;21.30;99.90
16966;DHT22;8599;47.852;12.070;2022-07-12T09:09:09;21.40;99.90
16966;DHT22;8599;47.852;12.070;2022-07-12T09:11:37;21.50;99.90
16966;DHT22;8599;47.852;12.070;2022-07-12T09:14:04;21.60;99.90
16966;DHT22;8599;47.852;12.070;2022-07-12T09:16:32;21.60;99.90
16966;DHT22;8599;47.852;12.070;2022-07-12T09:19:14;21.50;99.90
16966;DHT22;8599;47.852;12.070;2022-07-12T09:21:52;21.40;99.90
16966;DHT22;8599;47.852;12.070;2022-07-12T09:24:19;21.30;99.90
16966;DHT22;8599;47.852;12.070;2022-07-12T09:26:46;21.30;99.90
16966;DHT22;8599;47.852;12.070;2022-07-12T09:29:13;21.40;99.90
16966;DHT22;8599;47.852;12.070;2022-07-12T09:31:43;21.30;99.90
16966;DHT22;8599;47.852;12.070;2022-07-12T09:34:25;21.50;99.90
16966;DHT22;8599;47.852;12.070;2022-07-12T09:37:15;21.90;99.90
16966;DHT22;8599;47.852;12.070;2022-07-12T09:39:42;21.90;99.90
16966;DHT22;8599;47.852;12.070;2022-07-12T09:42:10;21.90;99.90
16966;DHT22;8599;47.852;12.070;2022-07-12T09:44:38;21.90;99.90
16966;DHT22;8599;47.852;12.070;2022-07-12T09:47:08;21.90;99.90
16966;DHT22;8599;47.852;12.070;2022-07-12T09:49:39;21.90;99.90
16966;DHT22;8599;47.852;12.070;2022-07-12T09:52:11;21.90;99.90
16966;DHT22;8599;47.852;12.070;2022-07-12T09:54:40;21.70;99.90
16966;DHT22;8599;47.852;12.070;2022-07-12T09:57:13;21.50;99.90
16966;DHT22;8599;47.852;12.070;2022-07-12T09:59:43;21.40;99.90
16966;DHT22;8599;47.852;12.070;2022-07-12T10:02:11;21.50;99.90
16966;DHT22;8599;47.852;12.070;2022-07-12T10:04:42;21.70;99.90
16966;DHT22;8599;47.852;12.070;2022-07-12T10:07:10;21.80;99.90
16966;DHT22;8599;47.852;12.070;2022-07-12T10:09:40;21.80;99.90
16966;DHT22;8599;47.852;12.070;2022-07-12T10:12:08;21.90;99.90
16966;DHT22;8599;47.852;12.070;2022-07-12T10:14:36;22.00;99.90
16966;DHT22;8599;47.852;12.070;2022-07-12T10:17:04;22.10;99.90
16966;DHT22;8599;47.852;12.070;2022-07-12T10:19:35;22.20;99.90
16966;DHT22;8599;47.852;12.070;2022-07-12T10:22:05;22.30;99.90
16966;DHT22;8599;47.852;12.070;2022-07-12T10:24:46;22.40;99.90
16966;DHT22;8599;47.852;12.070;2022-07-12T10:27:30;22.30;99.90
16966;DHT22;8599;47.852;12.070;2022-07-12T10:30:29;22.30;99.90
16966;DHT22;8599;47.852;12.070;2022-07-12T10:32:57;22.30;99.90
16966;DHT22;8599;47.852;12.070;2022-07-12T10:35:26;22.30;99.90
16966;DHT22;8599;47.852;12.070;2022-07-12T10:38:18;22.40;99.90
16966;DHT22;8599;47.852;12.070;2022-07-12T10:40:49;22.30;99.90
16966;DHT22;8599;47.852;12.070;2022-07-12T10:43:28;22.30;99.90
16966;DHT22;8599;47.852;12.070;2022-07-12T10:46:22;22.40;99.90
16966;DHT22;8599;47.852;12.070;2022-07-12T10:48:51;22.40;99.90
16966;DHT22;8599;47.852;12.070;2022-07-12T10:51:18;22.40;99.90
16966;DHT22;8599;47.852;12.070;2022-07-12T10:53:48;22.70;99.70
16966;DHT22;8599;47.852;12.070;2022-07-12T10:56:18;22.80;98.70
16966;DHT22;8599;47.852;12.070;2022-07-12T10:58:47;22.90;99.00
16966;DHT22;8599;47.852;12.070;2022-07-12T11:01:16;22.80;99.40
16966;DHT22;8599;47.852;12.070;2022-07-12T11:03:45;23.00;99.20
16966;DHT22;8599;47.852;12.070;2022-07-12T11:06:14;23.10;98.60
16966;DHT22;8599;47.852;12.070;2022-07-12T11:08:56;23.00;97.70
16966;DHT22;8599;47.852;12.070;2022-07-12T11:11:26;22.80;98.70
16966;DHT22;8599;47.852;12.070;2022-07-12T11:13:54;22.70;99.40
16966;DHT22;8599;47.852;12.070;2022-07-12T11:16:21;22.70;99.50
16966;DHT22;8599;47.852;12.070;2022-07-12T11:18:49;22.80;99.50
16966;DHT22;8599;47.852;12.070;2022-07-12T11:21:17;22.90;99.90
16966;DHT22;8599;47.852;12.070;2022-07-12T11:23:44;22.90;98.90
16966;DHT22;8599;47.852;12.070;2022-07-12T11:26:13;23.00;98.70
16966;DHT22;8599;47.852;12.070;2022-07-12T11:28:41;23.20;98.40
16966;DHT22;8599;47.852;12.070;2022-07-12T11:31:10;23.50;97.00
16966;DHT22;8599;47.852;12.070;2022-07-12T11:33:38;23.60;97.40
16966;DHT22;8599;47.852;12.070;2022-07-12T11:36:07;23.50;97.40
16966;DHT22;8599;47.852;12.070;2022-07-12T11:38:35;23.10;99.10
16966;DHT22;8599;47.852;12.070;2022-07-12T11:41:03;23.10;99.00
16966;DHT22;8599;47.852;12.070;2022-07-12T11:43:37;23.30;98.90
16966;DHT22;8599;47.852;12.070;2022-07-12T11:46:05;23.50;98.20
16966;DHT22;8599;47.852;12.070;2022-07-12T11:48:32;23.70;98.00
16966;DHT22;8599;47.852;12.070;2022-07-12T11:51:01;23.80;97.00
16966;DHT22;8599;47.852;12.070;2022-07-12T11:53:30;23.70;96.90
16966;DHT22;8599;47.852;12.070;2022-07-12T11:55:58;23.60;97.60
16966;DHT22;8599;47.852;12.070;2022-07-12T11:58:27;23.60;97.20
16966;DHT22;8599;47.852;12.070;2022-07-12T12:00:56;23.60;97.60
16966;DHT22;8599;47.852;12.070;2022-07-12T12:03:24;23.50;97.50
16966;DHT22;8599;47.852;12.070;2022-07-12T12:05:52;23.50;98.30
16966;DHT22;8599;47.852;12.070;2022-07-12T12:08:20;23.50;97.80
16966;DHT22;8599;47.852;12.070;2022-07-12T12:10:55;23.30;97.90
16966;DHT22;8599;47.852;12.070;2022-07-12T12:13:23;23.40;98.90
16966;DHT22;8599;47.852;12.070;2022-07-12T12:15:52;23.70;98.20
16966;DHT22;8599;47.852;12.070;2022-07-12T12:18:29;24.20;97.90
16966;DHT22;8599;47.852;12.070;2022-07-12T12:20:58;24.60;96.80
16966;DHT22;8599;47.852;12.070;2022-07-12T12:23:26;24.60;95.40
16966;DHT22;8599;47.852;12.070;2022-07-12T12:25:53;24.70;96.90
16966;DHT22;8599;47.852;12.070;2022-07-12T12:28:41;24.60;96.80
16966;DHT22;8599;47.852;12.070;2022-07-12T12:31:09;24.90;95.90
16966;DHT22;8599;47.852;12.070;2022-07-12T12:33:39;24.90;94.50
16966;DHT22;8599;47.852;12.070;2022-07-12T12:36:21;25.00;94.90
16966;DHT22;8599;47.852;12.070;2022-07-12T12:38:49;25.10;94.70
16966;DHT22;8599;47.852;12.070;2022-07-12T12:41:16;25.30;95.30
16966;DHT22;8599;47.852;12.070;2022-07-12T12:43:43;25.60;94.40
16966;DHT22;8599;47.852;12.070;2022-07-12T12:46:10;25.40;94.10
16966;DHT22;8599;47.852;12.070;2022-07-12T12:48:46;25.40;95.00
16966;DHT22;8599;47.852;12.070;2022-07-12T12:51:13;25.40;94.90
16966;DHT22;8599;47.852;12.070;2022-07-12T12:53:41;25.40;94.30
16966;DHT22;8599;47.852;12.070;2022-07-12T12:56:10;25.40;94.60
16966;DHT22;8599;47.852;12.070;2022-07-12T12:58:37;25.50;94.00
16966;DHT22;8599;47.852;12.070;2022-07-12T13:01:05;25.40;94.30
16966;DHT22;8599;47.852;12.070;2022-07-12T13:03:33;24.90;94.30
16966;DHT22;8599;47.852;12.070;2022-07-12T13:06:01;24.50;94.90
16966;DHT22;8599;47.852;12.070;2022-07-12T13:08:30;24.50;95.20
16966;DHT22;8599;47.852;12.070;2022-07-12T13:10:58;24.90;95.00
16966;DHT22;8599;47.852;12.070;2022-07-12T13:13:42;25.00;94.10
16966;DHT22;8599;47.852;12.070;2022-07-12T13:16:09;25.20;93.80
16966;DHT22;8599;47.852;12.070;2022-07-12T13:18:36;25.60;93.90
16966;DHT22;8599;47.852;12.070;2022-07-12T13:21:04;26.10;93.60
16966;DHT22;8599;47.852;12.070;2022-07-12T13:23:31;26.40;93.20
16966;DHT22;8599;47.852;12.070;2022-07-12T13:25:58;26.40;93.10
16966;DHT22;8599;47.852;12.070;2022-07-12T13:28:25;26.60;92.80
16966;DHT22;8599;47.852;12.070;2022-07-12T13:30:52;26.70;91.80
16966;DHT22;8599;47.852;12.070;2022-07-12T13:33:21;26.60;92.40
16966;DHT22;8599;47.852;12.070;2022-07-12T13:35:48;26.30;92.40
16966;DHT22;8599;47.852;12.070;2022-07-12T13:38:16;26.40;92.10
16966;DHT22;8599;47.852;12.070;2022-07-12T13:40:43;26.30;92.90
16966;DHT22;8599;47.852;12.070;2022-07-12T13:43:10;25.80;93.20
16966;DHT22;8599;47.852;12.070;2022-07-12T13:45:37;25.60;94.20
16966;DHT22;8599;47.852;12.070;2022-07-12T13:48:04;25.90;93.30
16966;DHT22;8599;47.852;12.070;2022-07-12T13:50:31;26.30;92.00
16966;DHT22;8599;47.852;12.070;2022-07-12T13:52:59;26.60;91.50
16966;DHT22;8599;47.852;12.070;2022-07-12T13:55:28;27.00;91.20
16966;DHT22;8599;47.852;12.070;2022-07-12T13:57:56;27.30;91.10
16966;DHT22;8599;47.852;12.070;2022-07-12T14:00:25;26.60;90.90
16966;DHT22;8599;47.852;12.070;2022-07-12T14:02:52;25.80;91.20
16966;DHT22;8599;47.852;12.070;2022-07-12T14:05:19;25.60;92.50
16966;DHT22;8599;47.852;12.070;2022-07-12T14:07:47;25.60;91.70
16966;DHT22;8599;47.852;12.070;2022-07-12T14:10:14;26.00;91.90
16966;DHT22;8599;47.852;12.070;2022-07-12T14:12:42;26.60;90.90
16966;DHT22;8599;47.852;12.070;2022-07-12T14:15:10;26.60;90.00
16966;DHT22;8599;47.852;12.070;2022-07-12T14:17:46;26.60;89.50
16966;DHT22;8599;47.852;12.070;2022-07-12T14:20:15;27.20;89.70
16966;DHT22;8599;47.852;12.070;2022-07-12T14:22:42;27.70;88.20
16966;DHT22;8599;47.852;12.070;2022-07-12T14:25:09;27.20;88.60
16966;DHT22;8599;47.852;12.070;2022-07-12T14:27:38;26.60;90.90
16966;DHT22;8599;47.852;12.070;2022-07-12T14:30:09;26.60;90.70
16966;DHT22;8599;47.852;12.070;2022-07-12T14:32:36;26.90;88.80
16966;DHT22;8599;47.852;12.070;2022-07-12T14:35:04;27.20;89.50
16966;DHT22;8599;47.852;12.070;2022-07-12T14:37:34;27.20;86.90
16966;DHT22;8599;47.852;12.070;2022-07-12T14:40:01;27.40;87.50
16966;DHT22;8599;47.852;12.070;2022-07-12T14:42:28;27.50;88.30
16966;DHT22;8599;47.852;12.070;2022-07-12T14:44:55;27.80;85.90
16966;DHT22;8599;47.852;12.070;2022-07-12T14:47:23;27.50;86.80
16966;DHT22;8599;47.852;12.070;2022-07-12T14:49:50;26.90;89.20
16966;DHT22;8599;47.852;12.070;2022-07-12T14:52:19;26.60;89.10
16966;DHT22;8599;47.852;12.070;2022-07-12T14:54:46;26.80;89.50
16966;DHT22;8599;47.852;12.070;2022-07-12T14:57:13;27.10;89.40
16966;DHT22;8599;47.852;12.070;2022-07-12T14:59:40;27.10;88.80
16966;DHT22;8599;47.852;12.070;2022-07-12T15:02:07;26.60;88.90
16966;DHT22;8599;47.852;12.070;2022-07-12T15:04:36;26.20;91.10
16966;DHT22;8599;47.852;12.070;2022-07-12T15:07:03;26.00;90.50
16966;DHT22;8599;47.852;12.070;2022-07-12T15:09:30;25.90;90.50
16966;DHT22;8599;47.852;12.070;2022-07-12T15:11:57;26.50;89.80
16966;DHT22;8599;47.852;12.070;2022-07-12T15:14:24;26.90;88.70
16966;DHT22;8599;47.852;12.070;2022-07-12T15:16:51;27.10;87.90
16966;DHT22;8599;47.852;12.070;2022-07-12T15:19:18;26.70;88.70
16966;DHT22;8599;47.852;12.070;2022-07-12T15:21:46;27.20;87.90
16966;DHT22;8599;47.852;12.070;2022-07-12T15:24:13;26.90;87.10
16966;DHT22;8599;47.852;12.070;2022-07-12T15:26:40;26.90;86.90
16966;DHT22;8599;47.852;12.070;2022-07-12T15:29:06;26.70;86.60
16966;DHT22;8599;47.852;12.070;2022-07-12T15:31:33;26.50;86.30
16966;DHT22;8599;47.852;12.070;2022-07-12T15:34:01;26.10;88.10
16966;DHT22;8599;47.852;12.070;2022-07-12T15:36:28;25.80;87.70